Time;durP1;ratioP1;P1;durP2;ratioP2;P2;SDS_P1;SDS_P2;PMS_P1;PMS_P2;Temp;Humidity;BMP_temperature;BMP_pressure;BME280_temperature;BME280_humidity;BME280_pressure;Samples;Min_cycle;Max_cycle;Signal;HPM_P1;HPM_P2
2022/10/10 00:01:23;;;;;;;;;;;17.40;87.80;;;;;;5071744;28;20177;-10
2022/10/10 00:03:48;;;;;;;;;;;17.40;87.50;;;;;;5074840;28;19913;-10
2022/10/10 00:06:14;;;;;;;;;;;17.50;87.60;;;;;;5071614;28;19932;-10
2022/10/10 00:08:41;;;;;;;;;;;17.40;87.40;;;;;;5076335;28;19999;-11
2022/10/10 00:11:07;;;;;;;;;;;17.40;87.40;;;;;;5076563;28;19920;-10
2022/10/10 00:13:33;;;;;;;;;;;17.40;87.40;;;;;;5076198;28;20238;-10
2022/10/10 00:15:58;;;;;;;;;;;17.40;87.20;;;;;;5076604;28;19908;-10
2022/10/10 00:18:24;;;;;;;;;;;17.40;87.10;;;;;;5076752;28;19935;-10
2022/10/10 00:20:50;;;;;;;;;;;17.40;87.10;;;;;;5077093;28;20216;-9
2022/10/10 00:23:16;;;;;;;;;;;17.40;87.00;;;;;;5079951;28;20274;-10
2022/10/10 00:25:42;;;;;;;;;;;17.40;87.00;;;;;;5081170;28;19919;-10
2022/10/10 00:28:12;;;;;;;;;;;17.40;86.90;;;;;;5080910;28;20252;-10
2022/10/10 00:30:38;;;;;;;;;;;17.40;86.80;;;;;;5080985;28;19909;-10
2022/10/10 00:33:03;;;;;;;;;;;17.40;86.80;;;;;;5080189;28;19908;-10
2022/10/10 00:35:29;;;;;;;;;;;17.40;86.70;;;;;;5080725;28;19974;-10
2022/10/10 00:37:56;;;;;;;;;;;17.40;86.60;;;;;;5081072;28;20315;-10
2022/10/10 00:40:22;;;;;;;;;;;17.40;86.40;;;;;;5079878;28;19939;-10
2022/10/10 00:42:48;;;;;;;;;;;17.40;86.30;;;;;;5080212;28;19958;-10
2022/10/10 00:45:22;;;;;;;;;;;17.40;86.20;;;;;;5079022;28;20189;-11
2022/10/10 00:47:50;;;;;;;;;;;17.40;86.10;;;;;;5079582;28;19916;-10
2022/10/10 00:50:18;;;;;;;;;;;17.40;86.10;;;;;;5079295;28;19912;-9
2022/10/10 00:52:44;;;;;;;;;;;17.30;85.90;;;;;;5079531;28;19909;-11
2022/10/10 00:55:10;;;;;;;;;;;17.40;85.90;;;;;;5078584;28;20124;-10
2022/10/10 00:57:37;;;;;;;;;;;17.30;85.70;;;;;;5079193;28;19939;-10
2022/10/10 01:00:03;;;;;;;;;;;17.40;85.70;;;;;;5080154;28;19909;-10
2022/10/10 01:02:29;;;;;;;;;;;17.30;85.60;;;;;;5080179;28;20433;-10
2022/10/10 01:04:54;;;;;;;;;;;17.30;85.50;;;;;;5079006;28;19942;-10
2022/10/10 01:07:25;;;;;;;;;;;17.30;85.40;;;;;;5080084;28;20272;-9
2022/10/10 01:09:52;;;;;;;;;;;17.30;85.30;;;;;;5078952;28;19916;-10
2022/10/10 01:12:36;;;;;;;;;;;17.30;85.30;;;;;;5078739;28;19948;-11
2022/10/10 01:15:25;;;;;;;;;;;17.30;85.30;;;;;;5079261;28;19974;-10
2022/10/10 01:17:57;;;;;;;;;;;17.30;85.20;;;;;;5078739;28;19909;-10
2022/10/10 01:20:25;;;;;;;;;;;17.30;85.20;;;;;;5079758;28;19908;-10
2022/10/10 01:23:13;;;;;;;;;;;17.30;85.10;;;;;;5079217;28;19908;-11
2022/10/10 01:26:05;;;;;;;;;;;17.30;85.10;;;;;;5077916;28;20323;-9
2022/10/10 01:28:45;;;;;;;;;;;17.30;85.00;;;;;;5075518;28;20003;-10
2022/10/10 01:31:12;;;;;;;;;;;17.30;85.00;;;;;;5080002;28;20286;-11
2022/10/10 01:33:41;;;;;;;;;;;17.30;84.90;;;;;;5078598;28;19955;-10
2022/10/10 01:36:09;;;;;;;;;;;17.30;84.90;;;;;;5078518;28;19970;-9
2022/10/10 01:38:56;;;;;;;;;;;17.30;84.80;;;;;;5078486;28;20178;-10
2022/10/10 01:41:33;;;;;;;;;;;17.20;84.60;;;;;;5078233;28;19963;-10
2022/10/10 01:43:58;;;;;;;;;;;17.20;84.70;;;;;;5079287;28;19909;-9
2022/10/10 01:46:25;;;;;;;;;;;17.20;84.70;;;;;;5079606;28;20186;-10
2022/10/10 01:48:53;;;;;;;;;;;17.20;84.60;;;;;;5078339;28;19909;-10
2022/10/10 01:51:27;;;;;;;;;;;17.20;84.60;;;;;;5078947;28;19962;-10
2022/10/10 01:53:53;;;;;;;;;;;17.20;84.60;;;;;;5078414;28;19985;-10
2022/10/10 01:56:32;;;;;;;;;;;17.20;84.60;;;;;;5078978;28;19940;-10
2022/10/10 01:59:11;;;;;;;;;;;17.20;84.60;;;;;;5079690;28;19908;-9
2022/10/10 02:01:46;;;;;;;;;;;17.20;84.60;;;;;;5079243;28;20273;-10
2022/10/10 02:04:12;;;;;;;;;;;17.20;84.60;;;;;;5079217;28;20416;-10
2022/10/10 02:06:41;;;;;;;;;;;17.20;84.60;;;;;;5079584;28;19951;-10
2022/10/10 02:09:10;;;;;;;;;;;17.20;84.60;;;;;;5078849;28;19916;-10
2022/10/10 02:11:37;;;;;;;;;;;17.20;84.60;;;;;;5079286;28;19920;-10
2022/10/10 02:14:10;;;;;;;;;;;17.20;84.60;;;;;;5078716;28;19908;-10
2022/10/10 02:16:37;;;;;;;;;;;17.20;84.70;;;;;;5079772;28;19997;-11
2022/10/10 02:19:06;;;;;;;;;;;17.20;84.60;;;;;;5079192;28;19995;-11
2022/10/10 02:21:32;;;;;;;;;;;17.20;84.70;;;;;;5077874;28;20213;-10
2022/10/10 02:24:00;;;;;;;;;;;17.20;84.60;;;;;;5077827;28;19915;-11
2022/10/10 02:26:27;;;;;;;;;;;17.20;84.70;;;;;;5078192;28;20471;-10
2022/10/10 02:28:56;;;;;;;;;;;17.20;84.60;;;;;;5079006;28;20320;-10
2022/10/10 02:31:45;;;;;;;;;;;17.20;84.70;;;;;;5078688;28;19917;-9
2022/10/10 02:34:20;;;;;;;;;;;17.10;84.60;;;;;;5078995;28;20266;-10
2022/10/10 02:36:48;;;;;;;;;;;17.10;84.60;;;;;;5078148;28;19908;-9
2022/10/10 02:39:15;;;;;;;;;;;17.10;84.70;;;;;;5077648;28;19908;-10
2022/10/10 02:41:41;;;;;;;;;;;17.10;84.60;;;;;;5077441;28;19913;-10
2022/10/10 02:44:09;;;;;;;;;;;17.10;84.70;;;;;;5078086;28;19909;-9
2022/10/10 02:46:34;;;;;;;;;;;17.10;84.70;;;;;;5076268;28;19924;-9
2022/10/10 02:49:00;;;;;;;;;;;17.10;84.70;;;;;;5078367;28;19912;-10
2022/10/10 02:51:25;;;;;;;;;;;17.10;84.70;;;;;;5078241;28;19915;-10
2022/10/10 02:53:51;;;;;;;;;;;17.10;84.80;;;;;;5078268;28;19920;-9
2022/10/10 02:56:17;;;;;;;;;;;17.10;84.80;;;;;;5077502;28;19915;-10
2022/10/10 02:58:42;;;;;;;;;;;17.10;84.90;;;;;;5078320;28;19960;-10
2022/10/10 03:01:09;;;;;;;;;;;17.10;84.80;;;;;;5078229;28;19913;-11
2022/10/10 03:03:35;;;;;;;;;;;17.10;84.90;;;;;;5077175;28;20007;-10
2022/10/10 03:06:01;;;;;;;;;;;17.10;84.90;;;;;;5076535;28;20022;-11
2022/10/10 03:08:26;;;;;;;;;;;17.10;85.00;;;;;;5077288;28;19938;-10
2022/10/10 03:10:57;;;;;;;;;;;17.10;84.90;;;;;;5077730;28;20190;-10
2022/10/10 03:13:22;;;;;;;;;;;17.10;85.00;;;;;;5075561;28;19909;-10
2022/10/10 03:15:48;;;;;;;;;;;17.10;85.00;;;;;;5077182;28;19931;-11
2022/10/10 03:18:13;;;;;;;;;;;17.10;85.00;;;;;;5076379;28;19975;-10
2022/10/10 03:20:39;;;;;;;;;;;17.10;85.00;;;;;;5076075;28;20304;-9
2022/10/10 03:23:04;;;;;;;;;;;17.10;85.00;;;;;;5076565;28;19970;-9
2022/10/10 03:25:30;;;;;;;;;;;17.00;85.00;;;;;;5076219;28;19916;-9
2022/10/10 03:27:56;;;;;;;;;;;17.00;85.10;;;;;;5075741;28;20220;-10
2022/10/10 03:30:21;;;;;;;;;;;17.00;85.20;;;;;;5076694;28;19918;-10
2022/10/10 03:32:47;;;;;;;;;;;17.00;85.20;;;;;;5077202;28;19908;-10
2022/10/10 03:35:13;;;;;;;;;;;17.00;85.20;;;;;;5074686;28;19962;-10
2022/10/10 03:37:38;;;;;;;;;;;17.00;85.20;;;;;;5074742;28;20013;-11
2022/10/10 03:40:04;;;;;;;;;;;17.00;85.30;;;;;;5075976;28;19908;-10
2022/10/10 03:42:31;;;;;;;;;;;17.00;85.30;;;;;;5075217;28;19909;-9
2022/10/10 03:44:56;;;;;;;;;;;17.00;85.30;;;;;;5075274;28;19923;-9
2022/10/10 03:47:22;;;;;;;;;;;17.00;85.30;;;;;;5076185;28;20003;-11
2022/10/10 03:49:47;;;;;;;;;;;17.00;85.30;;;;;;5075558;28;19909;-10
2022/10/10 03:52:13;;;;;;;;;;;17.00;85.30;;;;;;5077206;28;19909;-9
2022/10/10 03:54:39;;;;;;;;;;;17.00;85.40;;;;;;5075877;28;20186;-10
2022/10/10 03:57:04;;;;;;;;;;;17.00;85.40;;;;;;5079212;28;19993;-11
2022/10/10 03:59:30;;;;;;;;;;;17.00;85.40;;;;;;5083072;28;19924;-11
2022/10/10 04:01:55;;;;;;;;;;;17.00;85.40;;;;;;5082354;28;19916;-10
2022/10/10 04:04:21;;;;;;;;;;;17.00;85.50;;;;;;5082483;28;20228;-9
2022/10/10 04:06:46;;;;;;;;;;;17.00;85.50;;;;;;5083114;28;19909;-10
2022/10/10 04:09:13;;;;;;;;;;;17.00;85.50;;;;;;5084334;28;19904;-10
2022/10/10 04:11:39;;;;;;;;;;;17.00;85.50;;;;;;5083788;28;19908;-10
2022/10/10 04:14:05;;;;;;;;;;;17.00;85.40;;;;;;5082250;28;19908;-10
2022/10/10 04:16:31;;;;;;;;;;;17.00;85.50;;;;;;5083472;28;19962;-10
2022/10/10 04:18:58;;;;;;;;;;;17.00;85.60;;;;;;5083205;28;20344;-13
2022/10/10 04:21:23;;;;;;;;;;;17.00;85.50;;;;;;5078269;28;19959;-10
2022/10/10 04:23:49;;;;;;;;;;;17.00;85.50;;;;;;5083470;28;19948;-10
2022/10/10 04:26:14;;;;;;;;;;;17.00;85.50;;;;;;5080884;28;20007;-10
2022/10/10 04:28:40;;;;;;;;;;;16.90;85.50;;;;;;5083265;28;19973;-8
2022/10/10 04:31:06;;;;;;;;;;;17.00;85.60;;;;;;5081690;28;20009;-11
2022/10/10 04:33:31;;;;;;;;;;;17.00;85.60;;;;;;5082635;28;19962;-10
2022/10/10 04:35:57;;;;;;;;;;;17.00;85.60;;;;;;5081934;28;19952;-11
2022/10/10 04:38:29;;;;;;;;;;;17.00;85.60;;;;;;5081788;28;19908;-10
2022/10/10 04:40:54;;;;;;;;;;;17.00;85.60;;;;;;5081767;28;19908;-10
2022/10/10 04:43:20;;;;;;;;;;;16.90;85.60;;;;;;5081888;28;19923;-10
2022/10/10 04:45:46;;;;;;;;;;;16.90;85.70;;;;;;5082096;28;19912;-10
2022/10/10 04:48:12;;;;;;;;;;;16.90;85.70;;;;;;5082524;28;20209;-10
2022/10/10 04:50:37;;;;;;;;;;;16.90;85.70;;;;;;5082493;28;20229;-11
2022/10/10 04:53:03;;;;;;;;;;;16.90;85.70;;;;;;5080848;28;19940;-11
2022/10/10 04:55:28;;;;;;;;;;;16.90;85.70;;;;;;5081237;28;20337;-11
2022/10/10 04:57:54;;;;;;;;;;;16.90;85.70;;;;;;5080448;28;20480;-11
2022/10/10 05:00:19;;;;;;;;;;;16.90;85.70;;;;;;5080769;28;19913;-11
2022/10/10 05:02:45;;;;;;;;;;;16.90;85.70;;;;;;5081127;28;20015;-12
2022/10/10 05:05:11;;;;;;;;;;;16.90;85.70;;;;;;5080819;28;20014;-11
2022/10/10 05:07:36;;;;;;;;;;;16.90;85.70;;;;;;5081586;28;20491;-10
2022/10/10 05:10:02;;;;;;;;;;;16.90;85.70;;;;;;5078377;28;19909;-10
2022/10/10 05:12:29;;;;;;;;;;;16.90;85.70;;;;;;5078795;28;19920;-11
2022/10/10 05:14:55;;;;;;;;;;;16.90;85.80;;;;;;5076841;28;20443;-10
2022/10/10 05:17:20;;;;;;;;;;;16.90;85.80;;;;;;5078419;28;20011;-11
2022/10/10 05:19:46;;;;;;;;;;;16.90;85.80;;;;;;5076686;28;19909;-10
2022/10/10 05:22:14;;;;;;;;;;;16.90;85.90;;;;;;5075763;28;20313;-11
2022/10/10 05:24:39;;;;;;;;;;;16.90;85.90;;;;;;5076467;28;19962;-10
2022/10/10 05:27:05;;;;;;;;;;;16.90;85.90;;;;;;5077490;28;19908;-10
2022/10/10 05:29:30;;;;;;;;;;;16.90;86.00;;;;;;5076642;28;19919;-11
2022/10/10 05:31:56;;;;;;;;;;;16.90;86.10;;;;;;5077903;28;19908;-11
2022/10/10 05:34:22;;;;;;;;;;;16.90;86.00;;;;;;5075091;28;19909;-10
2022/10/10 05:36:48;;;;;;;;;;;16.90;86.00;;;;;;5077264;28;19927;-11
2022/10/10 05:39:13;;;;;;;;;;;16.90;86.00;;;;;;5077766;28;20324;-10
2022/10/10 05:41:39;;;;;;;;;;;16.90;86.00;;;;;;5077979;28;19924;-11
2022/10/10 05:44:05;;;;;;;;;;;16.90;86.00;;;;;;5077712;28;20383;-10
2022/10/10 05:46:30;;;;;;;;;;;16.90;86.00;;;;;;5075397;28;20573;-9
2022/10/10 05:48:56;;;;;;;;;;;16.90;86.00;;;;;;5076536;28;19908;-11
2022/10/10 05:51:22;;;;;;;;;;;16.90;85.90;;;;;;5076575;28;19931;-10
2022/10/10 05:53:47;;;;;;;;;;;16.90;85.90;;;;;;5076089;28;19909;-10
2022/10/10 05:56:16;;;;;;;;;;;17.00;86.00;;;;;;5076616;28;19912;-11
2022/10/10 05:58:43;;;;;;;;;;;17.00;86.00;;;;;;5076887;28;19909;-9
2022/10/10 06:01:08;;;;;;;;;;;17.00;85.80;;;;;;5077754;28;19912;-11
2022/10/10 06:03:35;;;;;;;;;;;17.00;85.80;;;;;;5077354;28;20366;-10
2022/10/10 06:06:00;;;;;;;;;;;17.00;85.60;;;;;;5077931;28;19912;-9
2022/10/10 06:08:26;;;;;;;;;;;17.00;85.60;;;;;;5076737;28;19919;-11
2022/10/10 06:10:53;;;;;;;;;;;17.10;85.40;;;;;;5078349;28;20364;-9
2022/10/10 06:13:19;;;;;;;;;;;17.10;85.30;;;;;;5076712;28;20287;-10
2022/10/10 06:15:45;;;;;;;;;;;17.10;85.10;;;;;;5077666;28;20046;-10
2022/10/10 06:18:10;;;;;;;;;;;17.10;85.00;;;;;;5076966;28;19985;-9
2022/10/10 06:20:38;;;;;;;;;;;17.10;84.80;;;;;;5075824;28;20429;-10
2022/10/10 06:23:04;;;;;;;;;;;17.20;84.60;;;;;;5076587;28;19919;-10
2022/10/10 06:25:31;;;;;;;;;;;17.20;84.40;;;;;;5077023;28;19913;-10
2022/10/10 06:27:56;;;;;;;;;;;17.20;84.10;;;;;;5077626;28;19916;-11
2022/10/10 06:30:22;;;;;;;;;;;17.20;83.90;;;;;;5076856;28;19908;-11
2022/10/10 06:32:48;;;;;;;;;;;17.30;83.80;;;;;;5075864;28;19908;-9
2022/10/10 06:35:13;;;;;;;;;;;18.00;81.00;;;;;;5075528;28;19916;-11
2022/10/10 06:37:39;;;;;;;;;;;18.60;75.60;;;;;;5075102;28;19961;-10
2022/10/10 06:40:07;;;;;;;;;;;19.20;70.80;;;;;;5076291;28;19913;-11
2022/10/10 06:42:33;;;;;;;;;;;19.80;66.90;;;;;;5075125;28;19970;-10
2022/10/10 06:45:02;;;;;;;;;;;20.30;63.70;;;;;;5074853;28;19920;-11
2022/10/10 06:47:28;;;;;;;;;;;20.70;61.00;;;;;;5074720;28;19912;-11
2022/10/10 06:49:55;;;;;;;;;;;21.10;59.30;;;;;;5074827;28;20051;-9
2022/10/10 06:52:21;;;;;;;;;;;21.30;58.60;;;;;;5074941;28;19912;-12
2022/10/10 06:54:47;;;;;;;;;;;21.60;57.90;;;;;;5074248;28;19943;-10
2022/10/10 06:57:12;;;;;;;;;;;21.70;57.30;;;;;;5074056;28;19935;-10
2022/10/10 06:59:41;;;;;;;;;;;22.00;56.70;;;;;;5075350;28;20285;-11
2022/10/10 07:02:09;;;;;;;;;;;22.30;56.00;;;;;;5074326;28;19975;-11
2022/10/10 07:04:35;;;;;;;;;;;22.70;55.30;;;;;;5075404;28;20421;-11
2022/10/10 07:07:00;;;;;;;;;;;23.10;54.70;;;;;;5074552;28;19908;-11
2022/10/10 07:09:27;;;;;;;;;;;23.40;54.00;;;;;;5072420;28;19908;-11
2022/10/10 07:11:53;;;;;;;;;;;23.70;53.30;;;;;;5074672;28;20294;-10
2022/10/10 07:14:23;;;;;;;;;;;23.90;52.80;;;;;;5075700;28;20360;-11
2022/10/10 07:16:48;;;;;;;;;;;24.10;52.50;;;;;;5075388;28;19948;-11
2022/10/10 07:19:14;;;;;;;;;;;24.30;52.20;;;;;;5075774;28;19950;-11
2022/10/10 07:21:40;;;;;;;;;;;24.50;52.00;;;;;;5075852;28;19948;-10
2022/10/10 07:24:05;;;;;;;;;;;24.80;51.60;;;;;;5076495;28;19954;-10
2022/10/10 07:26:35;;;;;;;;;;;25.10;51.20;;;;;;5074333;28;19924;-11
2022/10/10 07:29:11;;;;;;;;;;;25.30;50.80;;;;;;5074641;28;19912;-10
2022/10/10 07:31:36;;;;;;;;;;;25.50;50.60;;;;;;5074914;28;20006;-11
2022/10/10 07:34:04;;;;;;;;;;;25.60;50.30;;;;;;5073779;28;19995;-11
2022/10/10 07:36:29;;;;;;;;;;;25.70;50.20;;;;;;5073473;28;20376;-10
2022/10/10 07:38:57;;;;;;;;;;;25.80;50.10;;;;;;5075081;28;20429;-11
2022/10/10 07:41:23;;;;;;;;;;;25.90;50.10;;;;;;5074312;28;20010;-11
2022/10/10 07:43:54;;;;;;;;;;;25.90;49.60;;;;;;5074061;28;20011;-11
2022/10/10 07:46:20;;;;;;;;;;;25.90;49.30;;;;;;5073734;28;19932;-11
2022/10/10 07:48:48;;;;;;;;;;;26.00;49.10;;;;;;5075654;28;19986;-11
2022/10/10 07:51:14;;;;;;;;;;;26.20;48.70;;;;;;5073448;28;20076;-11
2022/10/10 07:53:40;;;;;;;;;;;26.30;48.50;;;;;;5074388;28;19931;-11
2022/10/10 07:56:07;;;;;;;;;;;26.60;48.50;;;;;;5074186;28;19908;-11
2022/10/10 07:58:39;;;;;;;;;;;26.50;48.20;;;;;;5074136;28;19918;-11
2022/10/10 08:01:06;;;;;;;;;;;26.30;48.10;;;;;;5072375;28;19927;-11
2022/10/10 08:03:31;;;;;;;;;;;26.20;48.30;;;;;;5073175;28;19925;-12
2022/10/10 08:05:57;;;;;;;;;;;26.30;48.20;;;;;;5074399;28;19978;-11
2022/10/10 08:08:23;;;;;;;;;;;26.20;48.20;;;;;;5075486;28;20398;-12
2022/10/10 08:10:48;;;;;;;;;;;26.20;48.50;;;;;;5073964;28;20316;-10
2022/10/10 08:13:14;;;;;;;;;;;26.40;48.50;;;;;;5074626;28;19909;-10
2022/10/10 08:15:40;;;;;;;;;;;26.60;48.10;;;;;;5074117;28;19952;-11
2022/10/10 08:18:06;;;;;;;;;;;26.60;48.00;;;;;;5073964;28;19909;-10
2022/10/10 08:20:31;;;;;;;;;;;26.60;48.10;;;;;;5073242;28;19913;-11
2022/10/10 08:22:57;;;;;;;;;;;26.30;48.10;;;;;;5074475;28;20316;-11
2022/10/10 08:25:23;;;;;;;;;;;26.30;48.20;;;;;;5073474;28;19920;-11
2022/10/10 08:27:58;;;;;;;;;;;26.60;48.20;;;;;;5073390;28;19912;-10
2022/10/10 08:30:23;;;;;;;;;;;26.70;48.20;;;;;;5073971;28;20289;-9
2022/10/10 08:32:49;;;;;;;;;;;26.60;48.00;;;;;;5072967;28;19919;-11
2022/10/10 08:35:15;;;;;;;;;;;26.80;48.00;;;;;;5071104;28;19966;-11
2022/10/10 08:37:40;;;;;;;;;;;26.90;47.80;;;;;;5074085;28;19913;-11
2022/10/10 08:40:06;;;;;;;;;;;26.80;47.80;;;;;;5070449;28;19960;-12
2022/10/10 08:42:35;;;;;;;;;;;27.00;47.80;;;;;;5054311;28;19919;-11
2022/10/10 08:45:10;;;;;;;;;;;26.90;47.50;;;;;;5058337;28;19951;-11
2022/10/10 08:47:38;;;;;;;;;;;26.40;47.80;;;;;;5058925;28;19942;-10
2022/10/10 08:50:27;;;;;;;;;;;26.50;48.10;;;;;;5058351;28;19909;-12
2022/10/10 08:53:01;;;;;;;;;;;26.90;47.80;;;;;;5051999;28;19948;-12
2022/10/10 08:55:29;;;;;;;;;;;27.40;47.50;;;;;;5074785;28;19909;-11
2022/10/10 08:57:58;;;;;;;;;;;27.30;47.20;;;;;;5068685;28;20011;-12
2022/10/10 09:00:25;;;;;;;;;;;27.40;47.30;;;;;;5078044;28;19995;-10
2022/10/10 09:02:59;;;;;;;;;;;27.60;47.00;;;;;;5077464;28;19928;-11
2022/10/10 09:05:41;;;;;;;;;;;27.70;47.00;;;;;;5075764;28;19947;-10
2022/10/10 09:08:14;;;;;;;;;;;27.80;46.80;;;;;;5076953;28;20277;-11
2022/10/10 09:10:43;;;;;;;;;;;28.30;46.60;;;;;;5076372;28;19982;-13
2022/10/10 09:13:24;;;;;;;;;;;28.60;46.30;;;;;;5071409;28;20427;-11
2022/10/10 09:15:55;;;;;;;;;;;28.70;46.00;;;;;;5077127;28;19996;-12
2022/10/10 09:18:24;;;;;;;;;;;29.00;45.80;;;;;;5076903;28;19908;-11
2022/10/10 09:20:50;;;;;;;;;;;29.10;45.70;;;;;;5068558;28;20002;-11
2022/10/10 09:23:24;;;;;;;;;;;29.20;45.60;;;;;;5076100;28;20020;-13
2022/10/10 09:25:58;;;;;;;;;;;29.30;45.50;;;;;;5076518;28;19923;-11
2022/10/10 09:28:23;;;;;;;;;;;29.30;45.30;;;;;;5075134;28;19991;-11
2022/10/10 09:30:51;;;;;;;;;;;29.40;45.20;;;;;;5075757;28;20011;-11
2022/10/10 09:33:17;;;;;;;;;;;29.30;45.10;;;;;;5075097;28;19970;-12
2022/10/10 09:35:43;;;;;;;;;;;29.10;45.00;;;;;;5076522;28;20007;-12
2022/10/10 09:38:09;;;;;;;;;;;28.50;45.20;;;;;;5074738;28;19909;-12
2022/10/10 09:40:42;;;;;;;;;;;27.70;45.50;;;;;;5076819;28;20235;-12
2022/10/10 09:43:14;;;;;;;;;;;27.00;46.00;;;;;;5077334;28;20458;-11
2022/10/10 09:45:42;;;;;;;;;;;26.30;46.60;;;;;;5074904;28;19912;-11
2022/10/10 09:48:08;;;;;;;;;;;25.60;47.40;;;;;;5076667;28;19915;-12
2022/10/10 09:50:34;;;;;;;;;;;25.00;48.20;;;;;;5075973;28;19909;-12
2022/10/10 09:53:00;;;;;;;;;;;24.60;48.80;;;;;;5076595;28;19915;-13
2022/10/10 09:55:29;;;;;;;;;;;24.30;49.40;;;;;;5076005;28;19909;-12
2022/10/10 09:57:57;;;;;;;;;;;24.00;49.80;;;;;;5076482;28;19920;-11
2022/10/10 10:00:33;;;;;;;;;;;23.80;50.30;;;;;;5075473;28;19944;-12
2022/10/10 10:03:09;;;;;;;;;;;23.60;50.70;;;;;;5074713;28;19921;-11
2022/10/10 10:05:35;;;;;;;;;;;23.40;51.00;;;;;;5075162;28;19917;-12
2022/10/10 10:08:00;;;;;;;;;;;23.30;51.40;;;;;;5076679;28;19967;-12
2022/10/10 10:10:29;;;;;;;;;;;23.20;51.70;;;;;;5075555;28;19908;-12
2022/10/10 10:12:55;;;;;;;;;;;23.00;52.10;;;;;;5073701;28;20526;-12
2022/10/10 10:15:28;;;;;;;;;;;22.90;52.50;;;;;;5056739;28;19960;-11
2022/10/10 10:18:11;;;;;;;;;;;22.90;52.80;;;;;;5055466;28;19919;-12
2022/10/10 10:20:41;;;;;;;;;;;22.80;53.10;;;;;;5054568;28;19919;-13
2022/10/10 10:23:30;;;;;;;;;;;22.70;53.50;;;;;;5055748;28;19915;-11
2022/10/10 10:26:13;;;;;;;;;;;22.60;53.70;;;;;;5054224;28;19998;-12
2022/10/10 10:28:39;;;;;;;;;;;22.60;54.00;;;;;;5055404;28;20003;-11
2022/10/10 10:31:05;;;;;;;;;;;22.50;54.40;;;;;;5056471;28;19915;-10
2022/10/10 10:33:43;;;;;;;;;;;22.40;54.60;;;;;;5054318;28;19908;-13
2022/10/10 10:36:27;;;;;;;;;;;22.30;55.00;;;;;;5055680;28;19916;-11
2022/10/10 10:38:59;;;;;;;;;;;22.30;55.40;;;;;;5053899;28;19909;-13
2022/10/10 10:41:33;;;;;;;;;;;22.30;55.70;;;;;;5054329;28;19944;-11
2022/10/10 10:44:02;;;;;;;;;;;22.30;55.80;;;;;;5054152;28;20178;-13
2022/10/10 10:46:44;;;;;;;;;;;22.30;56.20;;;;;;5055007;28;19940;-12
2022/10/10 10:49:33;;;;;;;;;;;22.20;56.40;;;;;;5053385;28;19909;-11
2022/10/10 10:52:17;;;;;;;;;;;22.20;56.60;;;;;;5054291;28;19988;-12
2022/10/10 10:54:49;;;;;;;;;;;22.10;56.80;;;;;;5053733;28;19909;-10
2022/10/10 10:57:17;;;;;;;;;;;22.10;57.10;;;;;;5054079;28;19908;-12
2022/10/10 11:00:04;;;;;;;;;;;22.10;57.40;;;;;;5053975;28;20432;-11
2022/10/10 11:02:34;;;;;;;;;;;22.00;57.60;;;;;;5053924;28;19920;-11
2022/10/10 11:05:03;;;;;;;;;;;22.00;58.20;;;;;;5055402;28;19920;-12
2022/10/10 11:07:33;;;;;;;;;;;22.00;58.40;;;;;;5069381;28;19995;-12
2022/10/10 11:10:18;;;;;;;;;;;21.90;58.20;;;;;;5054339;28;20267;-12
2022/10/10 11:12:43;;;;;;;;;;;21.90;58.40;;;;;;5055540;28;19909;-11
2022/10/10 11:15:08;;;;;;;;;;;21.90;58.70;;;;;;5071124;28;19908;-11
2022/10/10 11:17:39;;;;;;;;;;;21.80;59.30;;;;;;5054212;28;20205;-11
2022/10/10 11:20:23;;;;;;;;;;;21.80;59.10;;;;;;5054815;28;19909;-12
2022/10/10 11:22:56;;;;;;;;;;;21.80;59.20;;;;;;5054510;28;20289;-13
2022/10/10 11:25:24;;;;;;;;;;;21.80;59.30;;;;;;5054446;28;19971;-11
2022/10/10 11:28:09;;;;;;;;;;;21.70;59.50;;;;;;5053705;28;19932;-11
2022/10/10 11:30:39;;;;;;;;;;;21.70;59.80;;;;;;5054097;28;20274;-10
2022/10/10 11:33:21;;;;;;;;;;;21.70;60.00;;;;;;5052848;28;19951;-12
2022/10/10 11:35:52;;;;;;;;;;;21.70;60.30;;;;;;5054486;28;19959;-12
2022/10/10 11:38:20;;;;;;;;;;;21.60;60.60;;;;;;5054673;28;19995;-12
2022/10/10 11:40:52;;;;;;;;;;;21.60;60.80;;;;;;5054466;28;19908;-11
2022/10/10 11:43:38;;;;;;;;;;;21.60;61.00;;;;;;5070399;28;20283;-12
2022/10/10 11:46:28;;;;;;;;;;;21.60;61.30;;;;;;5054257;28;20245;-11
2022/10/10 11:49:05;;;;;;;;;;;21.60;61.50;;;;;;5054045;28;19909;-12
2022/10/10 11:51:42;;;;;;;;;;;21.60;61.70;;;;;;5054082;28;19916;-13
2022/10/10 11:54:25;;;;;;;;;;;21.60;61.90;;;;;;5054256;28;20000;-13
2022/10/10 11:56:52;;;;;;;;;;;21.60;62.10;;;;;;5054578;28;19943;-10
2022/10/10 11:59:56;;;;;;;;;;;21.50;62.20;;;;;;5054598;28;20191;-12
2022/10/10 12:02:25;;;;;;;;;;;21.50;62.50;;;;;;5032267;28;19921;-12
2022/10/10 12:04:51;;;;;;;;;;;21.50;62.90;;;;;;5030488;28;19929;-12
2022/10/10 12:07:16;;;;;;;;;;;21.50;63.20;;;;;;5031198;28;19909;-11
2022/10/10 12:09:48;;;;;;;;;;;21.50;63.30;;;;;;5069806;28;19913;-12
2022/10/10 12:12:17;;;;;;;;;;;21.40;63.40;;;;;;5053683;28;19966;-11
2022/10/10 12:14:46;;;;;;;;;;;21.50;63.80;;;;;;5054024;28;19924;-12
2022/10/10 12:17:38;;;;;;;;;;;21.40;63.90;;;;;;5053262;28;20221;-10
2022/10/10 12:20:29;;;;;;;;;;;21.40;64.20;;;;;;5053889;28;19908;-10
2022/10/10 12:23:13;;;;;;;;;;;21.40;64.70;;;;;;5053038;28;19936;-12
2022/10/10 12:25:44;;;;;;;;;;;21.40;64.90;;;;;;5057717;28;20287;-11
2022/10/10 12:28:15;;;;;;;;;;;21.40;65.00;;;;;;5057581;28;20353;-10
2022/10/10 12:30:55;;;;;;;;;;;21.30;65.50;;;;;;5057715;28;19919;-11
2022/10/10 12:33:24;;;;;;;;;;;21.30;65.90;;;;;;5072638;28;19913;-10
2022/10/10 12:35:51;;;;;;;;;;;21.30;66.10;;;;;;5072744;28;19974;-11
2022/10/10 12:38:19;;;;;;;;;;;21.30;66.20;;;;;;5057612;28;19919;-12
2022/10/10 12:40:56;;;;;;;;;;;21.30;66.50;;;;;;5058144;28;19991;-12
2022/10/10 12:43:42;;;;;;;;;;;21.30;66.80;;;;;;5073595;28;19909;-11
2022/10/10 12:46:08;;;;;;;;;;;21.20;67.10;;;;;;5056851;28;19913;-11
2022/10/10 12:48:34;;;;;;;;;;;21.30;67.50;;;;;;5058186;28;19999;-11
2022/10/10 12:51:00;;;;;;;;;;;21.20;67.80;;;;;;5055083;28;19908;-10
2022/10/10 12:53:28;;;;;;;;;;;21.20;67.80;;;;;;5056765;28;20022;-11
2022/10/10 12:55:56;;;;;;;;;;;21.20;67.90;;;;;;5056108;28;19952;-12
2022/10/10 12:58:24;;;;;;;;;;;21.20;68.30;;;;;;5057369;28;20467;-11
2022/10/10 13:00:50;;;;;;;;;;;21.20;68.50;;;;;;5055762;28;19909;-9
2022/10/10 13:03:19;;;;;;;;;;;21.20;68.60;;;;;;5056107;28;19917;-10
2022/10/10 13:05:45;;;;;;;;;;;21.20;68.80;;;;;;5056655;28;20356;-10
2022/10/10 13:08:12;;;;;;;;;;;21.20;69.10;;;;;;5056957;28;19909;-11
2022/10/10 13:10:38;;;;;;;;;;;21.10;69.30;;;;;;5057354;28;19909;-12
2022/10/10 13:13:24;;;;;;;;;;;21.10;69.60;;;;;;5057976;28;19915;-10
2022/10/10 13:15:53;;;;;;;;;;;21.10;69.70;;;;;;5056829;28;19916;-12
2022/10/10 13:18:32;;;;;;;;;;;21.10;69.60;;;;;;5057804;28;19909;-12
2022/10/10 13:20:58;;;;;;;;;;;21.20;69.70;;;;;;5056404;28;19975;-12
2022/10/10 13:23:23;;;;;;;;;;;21.20;70.00;;;;;;5056402;28;20233;-12
2022/10/10 13:25:49;;;;;;;;;;;21.20;70.20;;;;;;5056164;28;20249;-11
2022/10/10 13:28:16;;;;;;;;;;;21.20;70.10;;;;;;5056184;28;19909;-10
2022/10/10 13:30:42;;;;;;;;;;;21.10;70.30;;;;;;5055034;28;19909;-12
2022/10/10 13:33:18;;;;;;;;;;;21.10;70.90;;;;;;5055316;28;20129;-12
2022/10/10 13:35:45;;;;;;;;;;;21.10;71.00;;;;;;5053052;28;19919;-11
2022/10/10 13:38:21;;;;;;;;;;;21.10;71.30;;;;;;5056707;28;19974;-11
2022/10/10 13:40:47;;;;;;;;;;;21.10;71.70;;;;;;5055613;28;19909;-10
2022/10/10 13:43:13;;;;;;;;;;;21.10;71.90;;;;;;5055926;28;20449;-11
2022/10/10 13:46:08;;;;;;;;;;;21.10;71.90;;;;;;5055761;28;20015;-11
2022/10/10 13:48:37;;;;;;;;;;;21.10;71.80;;;;;;5049708;28;20274;-13
2022/10/10 13:51:03;;;;;;;;;;;21.10;71.90;;;;;;5054198;28;20321;-12
2022/10/10 13:53:29;;;;;;;;;;;21.10;71.90;;;;;;5054150;28;20321;-11
2022/10/10 13:56:00;;;;;;;;;;;21.10;72.00;;;;;;5071142;28;19916;-12
2022/10/10 13:58:30;;;;;;;;;;;21.10;72.10;;;;;;5054152;28;20364;-10
2022/10/10 14:01:00;;;;;;;;;;;21.10;72.40;;;;;;5054877;28;19912;-12
2022/10/10 14:03:26;;;;;;;;;;;21.10;72.80;;;;;;5050534;28;20356;-13
2022/10/10 14:05:51;;;;;;;;;;;21.10;72.90;;;;;;5054570;28;20003;-12
2022/10/10 14:08:19;;;;;;;;;;;21.10;73.10;;;;;;5054703;28;19909;-12
2022/10/10 14:11:02;;;;;;;;;;;21.00;73.50;;;;;;5055130;28;19963;-11
2022/10/10 14:13:29;;;;;;;;;;;21.00;73.70;;;;;;5053617;28;20050;-10
2022/10/10 14:16:14;;;;;;;;;;;21.00;74.10;;;;;;5055573;28;19909;-11
2022/10/10 14:18:40;;;;;;;;;;;20.90;74.30;;;;;;5051116;28;19909;-12
2022/10/10 14:21:08;;;;;;;;;;;20.90;74.40;;;;;;5054639;28;20291;-10
2022/10/10 14:23:34;;;;;;;;;;;20.90;74.80;;;;;;5053463;28;20305;-10
2022/10/10 14:25:59;;;;;;;;;;;20.90;74.90;;;;;;5054882;28;20197;-10
2022/10/10 14:28:26;;;;;;;;;;;20.90;75.00;;;;;;5053134;28;19908;-11
2022/10/10 14:30:52;;;;;;;;;;;20.90;75.10;;;;;;5054610;28;19958;-10